Time;durP1;ratioP1;P1;durP2;ratioP2;P2;SDS_P1;SDS_P2;PMS_P1;PMS_P2;Temp;Humidity;BMP_temperature;BMP_pressure;BME280_temperature;BME280_humidity;BME280_pressure;Samples;Min_cycle;Max_cycle;Signal;HPM_P1;HPM_P2
2022/01/10 00:02:45;;;;;;;;;;;;;;;-16.88;66.13;98612.72;6375419;27;19926;-64
2022/01/10 00:05:48;;;;;;;;;;;;;;;-16.85;66.11;98607.91;6375126;27;19923;-63
2022/01/10 00:08:49;;;;;;;;;;;;;;;-16.81;65.98;98614.91;6374447;27;19999;-63
2022/01/10 00:11:50;;;;;;;;;;;;;;;-16.85;66.17;98612.94;6375144;27;19923;-63
2022/01/10 00:14:51;;;;;;;;;;;;;;;-17.02;65.65;98610.88;6375022;27;19931;-62
2022/01/10 00:17:52;;;;;;;;;;;;;;;-17.15;65.70;98615.81;6374317;27;19927;-63
2022/01/10 00:20:56;;;;;;;;;;;;;;;-17.27;65.70;98606.66;6374647;27;19923;-63
2022/01/10 00:23:59;;;;;;;;;;;;;;;-17.40;65.70;98599.00;6374912;27;20346;-63
2022/01/10 00:27:03;;;;;;;;;;;;;;;-17.49;65.62;98593.31;6374403;27;20023;-63
2022/01/10 00:30:04;;;;;;;;;;;;;;;-17.55;65.90;98596.25;6373959;27;19923;-61
2022/01/10 00:33:05;;;;;;;;;;;;;;;-17.61;65.78;98593.31;6374645;27;19923;-63
2022/01/10 00:36:06;;;;;;;;;;;;;;;-17.66;66.01;98589.59;6374432;27;19930;-63
2022/01/10 00:39:07;;;;;;;;;;;;;;;-17.73;65.70;98583.25;6374507;27;19923;-63
2022/01/10 00:42:08;;;;;;;;;;;;;;;-17.79;65.92;98579.47;6373892;27;19923;-63
2022/01/10 00:45:23;;;;;;;;;;;;;;;-17.85;65.76;98577.38;6374507;27;19923;-63
2022/01/10 00:48:24;;;;;;;;;;;;;;;-17.92;65.53;98560.97;6372512;27;19931;-63
2022/01/10 00:51:25;;;;;;;;;;;;;;;-17.99;65.75;98567.97;6355946;27;20304;-63
2022/01/10 00:54:26;;;;;;;;;;;;;;;-18.06;65.78;98575.81;6373954;27;19924;-63
2022/01/10 00:57:27;;;;;;;;;;;;;;;-18.13;65.38;98570.34;6372565;27;19923;-64
2022/01/10 01:00:31;;;;;;;;;;;;;;;-18.19;65.35;98564.88;6374054;27;19923;-63
2022/01/10 01:03:34;;;;;;;;;;;;;;;-18.26;65.58;98565.16;6373919;27;20022;-64
2022/01/10 01:06:38;;;;;;;;;;;;;;;-18.27;65.70;98562.56;6373899;27;19923;-63
2022/01/10 01:09:47;;;;;;;;;;;;;;;-18.29;65.16;98562.44;6373789;27;19923;-63
2022/01/10 01:13:22;;;;;;;;;;;;;;;-18.34;65.15;98558.69;6373653;27;19924;-62
2022/01/10 01:16:19;;;;;;;;;;;;;;;-17.82;64.71;98551.59;6372176;27;19923;-62
2022/01/10 01:25:41;;;;;;;;;;;;;;;-17.64;64.67;98531.88;6372338;27;19923;-64
2022/01/10 01:28:41;;;;;;;;;;;;;;;-17.77;64.93;98533.53;6373264;27;19923;-64
2022/01/10 01:31:45;;;;;;;;;;;;;;;-17.80;65.24;98525.81;6373211;27;19924;-63
2022/01/10 01:34:49;;;;;;;;;;;;;;;-17.90;65.38;98529.28;6372486;27;19931;-63
2022/01/10 01:37:51;;;;;;;;;;;;;;;-17.94;65.59;98518.91;6372439;27;19923;-63
2022/01/10 01:40:59;;;;;;;;;;;;;;;-17.99;65.52;98520.22;6372202;27;19928;-63
2022/01/10 01:44:03;;;;;;;;;;;;;;;-18.02;65.61;98512.47;6372839;27;20292;-63
2022/01/10 01:47:04;;;;;;;;;;;;;;;-18.03;65.70;98515.72;6372508;27;19923;-63
2022/01/10 01:50:07;;;;;;;;;;;;;;;-18.04;65.38;98524.03;6372859;27;20018;-63
2022/01/10 01:53:09;;;;;;;;;;;;;;;-18.08;65.35;98519.53;6353648;27;19926;-63
2022/01/10 01:56:14;;;;;;;;;;;;;;;-18.09;65.46;98520.31;6372543;27;19924;-63
2022/01/10 01:59:18;;;;;;;;;;;;;;;-18.14;65.73;98523.38;6372306;27;20014;-63
2022/01/10 02:02:19;;;;;;;;;;;;;;;-18.22;65.50;98524.44;6371751;27;19930;-62
2022/01/10 02:05:22;;;;;;;;;;;;;;;-18.33;65.32;98525.31;6372499;27;20392;-63
2022/01/10 02:08:25;;;;;;;;;;;;;;;-18.38;65.89;98521.56;6372296;27;19923;-64
2022/01/10 02:11:26;;;;;;;;;;;;;;;-18.42;65.83;98528.03;6371958;27;19968;-63
2022/01/10 02:14:27;;;;;;;;;;;;;;;-18.45;65.41;98525.28;6372028;27;19924;-63
2022/01/10 02:17:36;;;;;;;;;;;;;;;-18.52;65.71;98522.19;6371513;27;19923;-64
2022/01/10 02:20:37;;;;;;;;;;;;;;;-18.55;65.47;98516.97;6371836;27;19924;-63
2022/01/10 02:23:39;;;;;;;;;;;;;;;-18.62;65.46;98521.53;6353598;27;19924;-63
2022/01/10 02:26:40;;;;;;;;;;;;;;;-18.68;65.06;98510.13;6371266;27;19976;-63
2022/01/10 02:29:41;;;;;;;;;;;;;;;-18.68;65.16;98505.13;6371817;27;19928;-63
2022/01/10 02:32:42;;;;;;;;;;;;;;;-18.65;65.22;98516.28;6371948;27;19929;-63
2022/01/10 02:36:31;;;;;;;;;;;;;;;-18.61;64.97;98527.41;6371883;27;19953;-63
2022/01/10 02:39:11;;;;;;;;;;;;;;;-18.40;65.11;98523.09;6358540;27;19923;-63
2022/01/10 02:42:14;;;;;;;;;;;;;;;-18.26;64.15;98512.41;6353583;28;19924;-63
2022/01/10 02:45:15;;;;;;;;;;;;;;;-18.38;64.45;98506.50;6370942;28;20308;-62
2022/01/10 02:48:16;;;;;;;;;;;;;;;-18.37;64.27;98503.22;6371433;28;19923;-63
2022/01/10 02:51:20;;;;;;;;;;;;;;;-18.38;64.53;98509.03;6371485;28;19923;-64
2022/01/10 02:54:24;;;;;;;;;;;;;;;-18.36;64.69;98494.94;6371341;28;19924;-63
2022/01/10 02:57:28;;;;;;;;;;;;;;;-18.38;64.56;98501.50;6371113;28;19923;-63
2022/01/10 03:00:28;;;;;;;;;;;;;;;-18.34;64.73;98498.41;6369858;28;19923;-63
2022/01/10 03:03:32;;;;;;;;;;;;;;;-18.33;64.65;98502.69;6371003;28;20346;-63
2022/01/10 03:06:36;;;;;;;;;;;;;;;-18.30;64.61;98495.38;6370141;28;20408;-63
2022/01/10 03:09:38;;;;;;;;;;;;;;;-18.29;64.98;98492.09;6370363;28;19937;-63
2022/01/10 03:12:42;;;;;;;;;;;;;;;-18.29;64.74;98497.13;6374231;27;19937;-62
2022/01/10 03:15:44;;;;;;;;;;;;;;;-18.30;64.81;98510.47;6376145;27;19930;-63
2022/01/10 03:18:50;;;;;;;;;;;;;;;-18.33;64.92;98514.38;6376230;27;19923;-63
2022/01/10 03:21:51;;;;;;;;;;;;;;;-18.36;64.80;98510.00;6375953;27;19923;-62
2022/01/10 03:24:56;;;;;;;;;;;;;;;-18.42;64.59;98514.59;6375786;27;19923;-63
2022/01/10 03:27:57;;;;;;;;;;;;;;;-18.45;64.68;98514.34;6375559;27;19923;-63
2022/01/10 03:30:58;;;;;;;;;;;;;;;-18.48;64.35;98519.13;6375958;27;19931;-63
2022/01/10 03:33:59;;;;;;;;;;;;;;;-18.50;64.59;98520.69;6375501;27;19932;-63
2022/01/10 03:37:03;;;;;;;;;;;;;;;-18.50;64.58;98525.72;6375441;27;20357;-63
2022/01/10 03:40:06;;;;;;;;;;;;;;;-18.49;65.06;98532.47;6375501;27;19924;-63
2022/01/10 03:43:10;;;;;;;;;;;;;;;-18.53;64.85;98530.50;6375155;27;19923;-63
2022/01/10 03:46:11;;;;;;;;;;;;;;;-18.55;64.42;98521.97;6375359;27;19930;-63
2022/01/10 03:49:12;;;;;;;;;;;;;;;-18.55;64.60;98527.88;6375565;27;19927;-62
2022/01/10 03:52:13;;;;;;;;;;;;;;;-18.61;64.29;98535.81;6375695;27;19930;-62
2022/01/10 03:55:17;;;;;;;;;;;;;;;-18.59;64.56;98526.78;6375418;27;19923;-63
2022/01/10 03:58:18;;;;;;;;;;;;;;;-18.61;64.31;98525.78;6375261;27;19923;-63
2022/01/10 04:01:22;;;;;;;;;;;;;;;-18.64;64.10;98533.09;6375003;27;19928;-62
2022/01/10 04:04:23;;;;;;;;;;;;;;;-18.67;64.24;98535.38;6374927;27;19923;-63
2022/01/10 04:07:26;;;;;;;;;;;;;;;-18.64;64.17;98539.75;6374836;27;19927;-63
2022/01/10 04:10:29;;;;;;;;;;;;;;;-18.61;64.08;98538.31;6375248;27;20414;-63
2022/01/10 04:13:31;;;;;;;;;;;;;;;-18.61;64.06;98538.31;6375094;27;19973;-63
2022/01/10 04:16:34;;;;;;;;;;;;;;;-18.63;63.64;98538.97;6374960;27;19966;-63
2022/01/10 04:19:35;;;;;;;;;;;;;;;-18.65;63.30;98535.47;6374410;27;19923;-63
2022/01/10 04:22:36;;;;;;;;;;;;;;;-18.61;63.40;98542.47;6355545;27;19923;-63
2022/01/10 04:25:37;;;;;;;;;;;;;;;-18.61;63.41;98533.31;6374037;27;19923;-63
2022/01/10 04:28:43;;;;;;;;;;;;;;;-18.58;63.35;98538.56;6373712;27;20585;-63
2022/01/10 04:31:44;;;;;;;;;;;;;;;-18.54;63.58;98534.63;6374343;27;19988;-63
2022/01/10 04:34:51;;;;;;;;;;;;;;;-18.49;63.22;98532.47;6374344;27;20308;-63
2022/01/10 04:37:52;;;;;;;;;;;;;;;-18.43;62.95;98538.81;6373849;27;19923;-63
2022/01/10 04:40:56;;;;;;;;;;;;;;;-18.32;62.94;98532.06;6374584;27;19924;-63
2022/01/10 04:43:57;;;;;;;;;;;;;;;-18.20;62.67;98543.03;6374383;27;19924;-63
2022/01/10 04:46:58;;;;;;;;;;;;;;;-18.06;62.59;98546.53;6373525;27;19927;-63
2022/01/10 04:53:21;;;;;;;;;;;;;;;-17.81;62.23;98541.63;6373189;27;19934;-63
2022/01/10 04:56:24;;;;;;;;;;;;;;;-17.64;62.26;98552.00;6373232;27;20304;-62
2022/01/10 04:59:28;;;;;;;;;;;;;;;-17.47;61.72;98561.59;6373730;27;19923;-64
2022/01/10 05:02:34;;;;;;;;;;;;;;;-17.32;61.55;98562.69;6373908;27;19923;-64
2022/01/10 05:05:35;;;;;;;;;;;;;;;-17.14;61.17;98557.19;6373701;27;19938;-63
2022/01/10 05:08:40;;;;;;;;;;;;;;;-16.96;61.16;98553.41;6373523;27;19923;-63
2022/01/10 05:11:42;;;;;;;;;;;;;;;-16.76;60.52;98552.25;6372559;27;19923;-63
2022/01/10 05:14:43;;;;;;;;;;;;;;;-16.56;60.69;98551.03;6373613;27;19965;-63
2022/01/10 05:17:44;;;;;;;;;;;;;;;-16.38;60.43;98549.78;6373395;27;20419;-63
2022/01/10 05:20:46;;;;;;;;;;;;;;;-16.13;59.71;98553.91;6373286;27;19930;-63
2022/01/10 05:23:48;;;;;;;;;;;;;;;-15.90;59.87;98551.25;6372623;27;19923;-63
2022/01/10 05:26:49;;;;;;;;;;;;;;;-15.70;59.25;98554.19;6373345;27;20369;-63
2022/01/10 05:29:52;;;;;;;;;;;;;;;-15.58;58.93;98549.88;6373314;27;19928;-64
2022/01/10 05:32:53;;;;;;;;;;;;;;;-15.33;59.09;98548.91;6373260;27;19923;-64
2022/01/10 05:35:54;;;;;;;;;;;;;;;-15.18;58.29;98545.66;6372904;27;19930;-64
2022/01/10 05:38:56;;;;;;;;;;;;;;;-14.89;57.86;98550.75;6372658;27;19934;-63
2022/01/10 05:41:57;;;;;;;;;;;;;;;-14.56;57.53;98545.22;6372581;27;20345;-63
2022/01/10 05:44:59;;;;;;;;;;;;;;;-14.42;56.87;98540.06;6372810;27;19929;-63
2022/01/10 05:48:07;;;;;;;;;;;;;;;-14.29;56.95;98553.53;6372266;27;20265;-63
2022/01/10 05:51:08;;;;;;;;;;;;;;;-14.11;56.41;98556.25;6371552;27;19923;-63
2022/01/10 05:54:09;;;;;;;;;;;;;;;-13.90;55.70;98551.53;6372015;27;20304;-64
2022/01/10 05:57:10;;;;;;;;;;;;;;;-13.80;55.35;98552.94;6353949;27;19924;-64
2022/01/10 06:00:14;;;;;;;;;;;;;;;-13.60;54.96;98557.47;6372425;27;19915;-64
2022/01/10 06:03:17;;;;;;;;;;;;;;;-13.28;54.50;98560.06;6372318;27;19923;-64
2022/01/10 06:06:23;;;;;;;;;;;;;;;-13.02;53.71;98556.38;6372331;27;20376;-63
2022/01/10 06:09:26;;;;;;;;;;;;;;;-12.88;53.33;98557.97;6371812;27;19930;-63
2022/01/10 06:12:27;;;;;;;;;;;;;;;-12.68;51.71;98557.41;6371495;27;19923;-62
2022/01/10 06:15:28;;;;;;;;;;;;;;;-12.66;51.19;98555.78;6371022;27;20382;-64
2022/01/10 06:18:31;;;;;;;;;;;;;;;-12.72;50.77;98542.81;6371965;27;20288;-64
2022/01/10 06:21:32;;;;;;;;;;;;;;;-12.84;50.65;98549.78;6371841;27;19924;-64
2022/01/10 06:24:33;;;;;;;;;;;;;;;-13.00;50.24;98545.53;6372182;27;19980;-63
2022/01/10 06:27:37;;;;;;;;;;;;;;;-12.99;49.42;98543.88;6371824;27;20406;-63
2022/01/10 06:30:38;;;;;;;;;;;;;;;-13.00;49.18;98543.00;6371287;27;19927;-64
2022/01/10 06:33:39;;;;;;;;;;;;;;;-13.02;49.00;98546.22;6371265;27;19930;-63
2022/01/10 06:36:40;;;;;;;;;;;;;;;-13.04;49.34;98536.03;6371045;27;19923;-64
2022/01/10 06:39:43;;;;;;;;;;;;;;;-12.76;48.49;98533.31;6371721;27;19984;-63
2022/01/10 06:42:44;;;;;;;;;;;;;;;-12.75;48.72;98527.44;6371580;27;20401;-63
2022/01/10 06:45:48;;;;;;;;;;;;;;;-12.67;48.53;98532.91;6371289;27;19930;-63
2022/01/10 06:48:55;;;;;;;;;;;;;;;-12.47;48.19;98531.41;6371226;28;19923;-63
2022/01/10 06:51:56;;;;;;;;;;;;;;;-12.01;46.27;98529.53;6370694;28;19927;-64
2022/01/10 06:54:58;;;;;;;;;;;;;;;-12.17;47.38;98526.16;6371309;28;19925;-64
2022/01/10 06:57:59;;;;;;;;;;;;;;;-11.93;47.04;98517.22;6371673;28;19924;-64
2022/01/10 07:01:03;;;;;;;;;;;;;;;-11.64;47.09;98525.34;6371438;28;19954;-63
2022/01/10 07:04:04;;;;;;;;;;;;;;;-11.48;45.79;98520.22;6370498;28;19923;-63
2022/01/10 07:07:06;;;;;;;;;;;;;;;-11.43;45.91;98513.69;6371446;28;19931;-63
2022/01/10 07:10:07;;;;;;;;;;;;;;;-11.21;45.92;98515.53;6371237;28;19930;-63
2022/01/10 07:13:10;;;;;;;;;;;;;;;-10.93;46.07;98515.16;6370687;28;19930;-63
2022/01/10 07:16:12;;;;;;;;;;;;;;;-10.78;46.09;98516.63;6371255;28;19992;-63
2022/01/10 07:19:17;;;;;;;;;;;;;;;-10.48;46.22;98507.81;6371256;28;19919;-63
2022/01/10 07:22:20;;;;;;;;;;;;;;;-10.08;45.53;98499.31;6371105;28;19923;-64
2022/01/10 07:25:21;;;;;;;;;;;;;;;-9.70;44.77;98504.28;6371017;28;20194;-63
2022/01/10 07:28:27;;;;;;;;;;;;;;;-9.02;42.98;98492.50;6370875;28;20296;-64
2022/01/10 07:31:29;;;;;;;;;;;;;;;-8.19;41.64;98494.66;6370955;28;19930;-63
2022/01/10 07:34:30;;;;;;;;;;;;;;;-6.97;38.48;98494.31;6371019;28;19920;-62
2022/01/10 07:37:32;;;;;;;;;;;;;;;-6.23;38.31;98489.63;6370906;28;20449;-63
2022/01/10 07:40:33;;;;;;;;;;;;;;;-5.68;37.37;98492.75;6370810;28;19921;-63
2022/01/10 07:43:34;;;;;;;;;;;;;;;-5.23;36.58;98481.84;6370583;28;19930;-63
2022/01/10 07:46:38;;;;;;;;;;;;;;;-4.29;35.79;98477.00;6371018;28;19931;-63
2022/01/10 07:49:42;;;;;;;;;;;;;;;-2.93;34.54;98475.88;6370561;28;19924;-63
2022/01/10 07:52:43;;;;;;;;;;;;;;;-1.93;32.99;98475.38;6370147;28;19935;-63
2022/01/10 07:55:44;;;;;;;;;;;;;;;-1.50;31.82;98473.22;6370284;28;19942;-63
2022/01/10 07:58:50;;;;;;;;;;;;;;;-1.12;31.57;98467.50;6371725;27;19924;-64
2022/01/10 08:01:51;;;;;;;;;;;;;;;-0.87;30.91;98467.66;6375146;27;19919;-63
2022/01/10 08:04:52;;;;;;;;;;;;;;;-0.22;30.62;98459.34;6356492;27;19931;-64
2022/01/10 08:07:58;;;;;;;;;;;;;;;1.09;28.59;98457.72;6375011;27;19930;-64
2022/01/10 08:10:59;;;;;;;;;;;;;;;2.18;28.12;98473.75;6374690;27;19993;-63
2022/01/10 08:14:01;;;;;;;;;;;;;;;3.39;26.88;98469.28;6374721;27;19923;-63
2022/01/10 08:17:02;;;;;;;;;;;;;;;4.80;26.49;98472.63;6374824;27;19996;-63
2022/01/10 08:20:04;;;;;;;;;;;;;;;6.07;24.99;98470.28;6373839;27;20400;-64
2022/01/10 08:23:07;;;;;;;;;;;;;;;6.54;25.79;98470.13;6374674;27;19934;-62
2022/01/10 08:26:09;;;;;;;;;;;;;;;7.08;25.71;98469.69;6374199;27;19923;-64
2022/01/10 08:29:10;;;;;;;;;;;;;;;7.67;25.59;98460.25;6374414;27;19924;-63
2022/01/10 08:32:11;;;;;;;;;;;;;;;8.32;24.90;98457.47;6374402;27;19923;-63
2022/01/10 08:35:12;;;;;;;;;;;;;;;8.05;24.81;98457.41;6374198;27;19923;-62
2022/01/10 08:38:13;;;;;;;;;;;;;;;7.84;22.60;98452.78;6374516;27;19926;-63
2022/01/10 08:41:14;;;;;;;;;;;;;;;7.11;22.49;98446.03;6374198;27;20369;-64
2022/01/10 08:44:18;;;;;;;;;;;;;;;6.60;21.67;98441.22;6374320;27;19930;-63
2022/01/10 08:47:20;;;;;;;;;;;;;;;6.38;22.05;98434.75;6373328;27;20377;-63
2022/01/10 08:50:23;;;;;;;;;;;;;;;5.82;20.88;98428.09;6373680;27;20044;-64
2022/01/10 08:53:27;;;;;;;;;;;;;;;5.28;21.68;98430.91;6373397;27;19930;-64
2022/01/10 08:56:32;;;;;;;;;;;;;;;4.96;22.39;98426.28;6373968;27;19927;-63
2022/01/10 08:59:36;;;;;;;;;;;;;;;5.00;22.12;98414.03;6373817;27;19923;-63
2022/01/10 09:02:37;;;;;;;;;;;;;;;5.24;22.43;98413.59;6355226;27;20012;-63
2022/01/10 09:05:42;;;;;;;;;;;;;;;5.02;21.67;98413.13;6373704;27;19927;-63
2022/01/10 09:08:47;;;;;;;;;;;;;;;4.03;22.72;98408.63;6372993;27;19958;-64
2022/01/10 09:11:49;;;;;;;;;;;;;;;3.42;21.95;98399.00;6373488;27;19923;-64
2022/01/10 09:14:51;;;;;;;;;;;;;;;2.94;22.65;98409.06;6355041;27;19931;-63
2022/01/10 09:17:52;;;;;;;;;;;;;;;2.84;22.78;98404.84;6373317;27;19931;-64
2022/01/10 09:20:56;;;;;;;;;;;;;;;2.11;23.93;98401.09;6372663;27;19923;-64
2022/01/10 09:23:59;;;;;;;;;;;;;;;1.93;24.56;98396.88;6373432;27;19927;-64
2022/01/10 09:27:05;;;;;;;;;;;;;;;1.53;24.51;98390.19;6373329;27;19927;-63
2022/01/10 09:30:09;;;;;;;;;;;;;;;0.44;25.74;98389.56;6373091;27;19923;-63
2022/01/10 09:33:10;;;;;;;;;;;;;;;-0.74;26.14;98381.56;6373099;27;19935;-63
2022/01/10 09:36:11;;;;;;;;;;;;;;;-1.79;27.19;98385.22;6372233;27;20324;-64
2022/01/10 09:39:13;;;;;;;;;;;;;;;-2.78;27.82;98383.34;6372829;27;19934;-64
2022/01/10 09:42:18;;;;;;;;;;;;;;;-3.89;28.96;98380.03;6373035;27;19927;-64
2022/01/10 09:45:21;;;;;;;;;;;;;;;-4.76;29.60;98376.75;6371906;27;19931;-65
2022/01/10 09:48:24;;;;;;;;;;;;;;;-5.48;31.02;98373.53;6372404;27;19923;-63
2022/01/10 09:51:29;;;;;;;;;;;;;;;-5.92;31.09;98370.78;6372398;27;19937;-63
2022/01/10 09:54:33;;;;;;;;;;;;;;;-6.03;31.92;98362.00;6372766;27;19923;-62
2022/01/10 09:57:39;;;;;;;;;;;;;;;-5.83;31.58;98369.28;6372538;27;19923;-64
2022/01/10 10:00:40;;;;;;;;;;;;;;;-5.59;30.51;98369.88;6371909;27;19923;-63
2022/01/10 10:03:47;;;;;;;;;;;;;;;-6.23;31.74;98373.47;6372409;27;20324;-63
2022/01/10 10:06:51;;;;;;;;;;;;;;;-6.63;32.41;98364.75;6371614;27;19930;-63
2022/01/10 10:09:55;;;;;;;;;;;;;;;-7.24;33.18;98356.25;6372213;27;19935;-62
2022/01/10 10:12:59;;;;;;;;;;;;;;;-7.40;33.90;98360.03;6372270;27;19923;-64
2022/01/10 10:16:11;;;;;;;;;;;;;;;-7.56;33.75;98348.47;6371466;27;19927;-63
2022/01/10 10:19:15;;;;;;;;;;;;;;;-7.54;33.86;98351.09;6370975;27;20356;-64
2022/01/10 10:22:19;;;;;;;;;;;;;;;-7.67;33.94;98344.78;6370962;27;19923;-64
2022/01/10 10:25:25;;;;;;;;;;;;;;;-7.73;34.35;98344.56;6372050;27;19927;-64
2022/01/10 10:28:28;;;;;;;;;;;;;;;-8.31;35.29;98351.25;6371656;27;19923;-63
2022/01/10 10:31:34;;;;;;;;;;;;;;;-8.96;36.82;98344.81;6371453;27;19924;-64
2022/01/10 10:34:38;;;;;;;;;;;;;;;-9.53;38.00;98346.16;6371237;27;19980;-63
2022/01/10 10:37:42;;;;;;;;;;;;;;;-9.92;38.94;98339.56;6371681;27;19923;-63
2022/01/10 10:40:44;;;;;;;;;;;;;;;-10.10;39.91;98335.47;6370593;27;20311;-64
2022/01/10 10:43:50;;;;;;;;;;;;;;;-10.32;40.66;98338.00;6370718;27;19923;-63
2022/01/10 10:46:51;;;;;;;;;;;;;;;-10.58;40.77;98332.72;6371341;28;19923;-64
2022/01/10 10:49:59;;;;;;;;;;;;;;;-10.69;41.57;98331.41;6371437;28;19980;-64
2022/01/10 10:53:04;;;;;;;;;;;;;;;-10.89;42.21;98334.00;6371663;28;19927;-65
2022/01/10 10:56:06;;;;;;;;;;;;;;;-10.89;42.80;98333.13;6371447;28;19919;-63
2022/01/10 10:59:07;;;;;;;;;;;;;;;-11.33;43.04;98335.47;6371105;28;20496;-64
2022/01/10 11:02:11;;;;;;;;;;;;;;;-11.55;43.96;98330.22;6371399;28;19943;-63
2022/01/10 11:05:12;;;;;;;;;;;;;;;-11.55;44.84;98332.78;6370217;28;19923;-65
2022/01/10 11:08:13;;;;;;;;;;;;;;;-11.74;45.52;98325.16;6370955;28;20464;-64
2022/01/10 11:11:21;;;;;;;;;;;;;;;-12.12;46.49;98326.81;6371494;28;19924;-64
2022/01/10 11:14:24;;;;;;;;;;;;;;;-12.41;47.11;98326.28;6370825;28;19919;-64
2022/01/10 11:17:26;;;;;;;;;;;;;;;-12.48;47.57;98321.72;6371186;28;20294;-63
2022/01/10 11:20:28;;;;;;;;;;;;;;;-12.79;47.75;98327.84;6370866;28;20021;-65
2022/01/10 11:23:29;;;;;;;;;;;;;;;-12.70;48.29;98319.81;6370056;28;19931;-64
2022/01/10 11:26:38;;;;;;;;;;;;;;;-12.77;48.65;98316.09;6371067;28;19924;-64
2022/01/10 11:29:42;;;;;;;;;;;;;;;-13.02;49.25;98320.75;6370935;28;19923;-68
2022/01/10 11:32:48;;;;;;;;;;;;;;;-13.00;48.84;98319.16;6372195;27;19930;-64
2022/01/10 11:35:49;;;;;;;;;;;;;;;-13.03;49.98;98317.34;6376104;27;19942;-63
2022/01/10 11:38:53;;;;;;;;;;;;;;;-13.13;50.55;98322.75;6375697;27;19923;-64
2022/01/10 11:41:54;;;;;;;;;;;;;;;-13.61;50.51;98310.22;6374895;27;19976;-64
2022/01/10 11:45:09;;;;;;;;;;;;;;;-13.54;51.37;98318.13;6374126;27;20392;-63
2022/01/10 11:48:15;;;;;;;;;;;;;;;-13.79;51.68;98314.28;6375518;27;19927;-64
2022/01/10 11:51:19;;;;;;;;;;;;;;;-13.94;51.58;98310.97;6374194;27;20307;-64
2022/01/10 11:54:26;;;;;;;;;;;;;;;-13.90;51.90;98312.84;6374594;27;20356;-64
2022/01/10 11:57:32;;;;;;;;;;;;;;;-14.08;52.34;98313.63;6375613;27;19923;-64
2022/01/10 12:00:34;;;;;;;;;;;;;;;-14.05;52.20;98315.44;6375436;27;19923;-64
2022/01/10 12:03:37;;;;;;;;;;;;;;;-14.26;52.73;98312.63;6374220;27;19923;-63
2022/01/10 12:06:40;;;;;;;;;;;;;;;-14.36;53.47;98310.38;6375224;27;20388;-63
2022/01/10 12:09:47;;;;;;;;;;;;;;;-14.40;53.33;98311.88;6374725;27;20388;-64
2022/01/10 12:12:51;;;;;;;;;;;;;;;-14.56;53.40;98300.06;6374101;27;19930;-63
2022/01/10 12:15:55;;;;;;;;;;;;;;;-14.52;54.09;98304.53;6374082;27;19931;-65
2022/01/10 12:19:03;;;;;;;;;;;;;;;-14.58;53.98;98309.19;6374823;27;19931;-64
2022/01/10 12:22:06;;;;;;;;;;;;;;;-14.73;54.23;98299.13;6373675;27;20448;-63
2022/01/10 12:25:10;;;;;;;;;;;;;;;-14.64;54.21;98292.84;6374290;27;20305;-64
2022/01/10 12:28:13;;;;;;;;;;;;;;;-14.84;54.69;98295.13;6373680;27;19923;-64
2022/01/10 12:31:16;;;;;;;;;;;;;;;-14.98;54.57;98286.75;6374339;27;20282;-65
2022/01/10 12:34:17;;;;;;;;;;;;;;;-14.98;55.27;98291.81;6373751;27;19923;-63
2022/01/10 12:37:18;;;;;;;;;;;;;;;-15.06;54.79;98293.00;6373751;27;20411;-63
2022/01/10 12:40:21;;;;;;;;;;;;;;;-14.97;55.15;98291.03;6373809;27;19930;-64
2022/01/10 12:43:22;;;;;;;;;;;;;;;-14.85;54.98;98287.47;6373025;27;19924;-64
2022/01/10 12:46:24;;;;;;;;;;;;;;;-15.08;55.31;98293.75;6372184;27;19934;-64
2022/01/10 12:49:25;;;;;;;;;;;;;;;-15.11;55.34;98288.47;6373057;27;19933;-63
2022/01/10 12:52:26;;;;;;;;;;;;;;;-15.02;55.75;98284.84;6373117;27;19923;-63
2022/01/10 12:55:27;;;;;;;;;;;;;;;-15.22;55.85;98272.75;6373705;27;19958;-64
2022/01/10 12:58:29;;;;;;;;;;;;;;;-15.18;55.84;98274.66;6374056;27;19923;-66
2022/01/10 13:01:32;;;;;;;;;;;;;;;-15.17;56.11;98266.28;6372984;27;19923;-64
2022/01/10 13:04:35;;;;;;;;;;;;;;;-15.18;56.66;98267.06;6373892;27;20392;-64
2022/01/10 13:07:41;;;;;;;;;;;;;;;-15.26;56.77;98258.19;6373830;27;20331;-64
2022/01/10 13:10:51;;;;;;;;;;;;;;;-15.32;57.04;98247.75;6373503;27;19923;-64
2022/01/10 13:14:04;;;;;;;;;;;;;;;-15.30;57.50;98248.72;6373404;27;19930;-65
2022/01/10 13:17:08;;;;;;;;;;;;;;;-15.14;57.28;98247.91;6372076;27;20364;-65
2022/01/10 13:20:12;;;;;;;;;;;;;;;-14.99;57.64;98249.66;6373175;27;19942;-64
2022/01/10 13:23:18;;;;;;;;;;;;;;;-15.19;57.92;98260.28;6373374;27;19971;-63
2022/01/10 13:26:24;;;;;;;;;;;;;;;-15.29;58.00;98261.41;6372072;27;20339;-65
2022/01/10 13:29:30;;;;;;;;;;;;;;;-15.14;57.89;98261.44;6371552;27;19923;-63
2022/01/10 13:32:31;;;;;;;;;;;;;;;-15.07;57.93;98260.13;6354622;27;19931;-64
2022/01/10 13:35:32;;;;;;;;;;;;;;;-15.17;58.24;98261.22;6372754;27;20076;-64
2022/01/10 13:38:36;;;;;;;;;;;;;;;-15.24;58.56;98254.09;6372777;27;20304;-64
2022/01/10 13:41:56;;;;;;;;;;;;;;;-15.36;58.61;98256.81;6372680;27;19935;-64
2022/01/10 13:45:01;;;;;;;;;;;;;;;-15.40;58.55;98250.72;6372442;27;19923;-64
2022/01/10 13:48:11;;;;;;;;;;;;;;;-15.47;58.80;98248.59;6354626;27;19930;-64
2022/01/10 13:51:22;;;;;;;;;;;;;;;-15.56;59.18;98243.03;6372786;27;20338;-64
2022/01/10 13:54:30;;;;;;;;;;;;;;;-15.63;59.41;98248.47;6371792;27;20316;-64
2022/01/10 13:57:36;;;;;;;;;;;;;;;-15.75;59.42;98240.22;6371823;27;19924;-64
2022/01/10 14:00:38;;;;;;;;;;;;;;;-15.72;59.22;98235.38;6372417;27;20394;-64
2022/01/10 14:03:39;;;;;;;;;;;;;;;-15.69;59.61;98235.53;6372268;27;19956;-64
2022/01/10 14:06:41;;;;;;;;;;;;;;;-15.76;59.27;98234.31;6372187;27;20281;-64
2022/01/10 14:09:44;;;;;;;;;;;;;;;-15.79;59.77;98238.28;6371360;27;19923;-65
2022/01/10 14:12:47;;;;;;;;;;;;;;;-15.83;59.91;98226.28;6372056;27;20006;-64
2022/01/10 14:15:48;;;;;;;;;;;;;;;-15.76;60.08;98229.28;6371254;27;20320;-63
2022/01/10 14:18:52;;;;;;;;;;;;;;;-15.68;60.11;98217.09;6371696;27;19923;-64
2022/01/10 14:21:53;;;;;;;;;;;;;;;-15.49;60.01;98219.88;6371725;27;19930;-64
2022/01/10 14:24:54;;;;;;;;;;;;;;;-15.48;59.98;98221.63;6370989;27;20009;-64
2022/01/10 14:27:55;;;;;;;;;;;;;;;-15.71;59.83;98216.91;6370948;27;19931;-64
2022/01/10 14:30:58;;;;;;;;;;;;;;;-15.57;60.15;98225.25;6371133;27;19930;-64
2022/01/10 14:34:03;;;;;;;;;;;;;;;-15.58;60.18;98214.31;6371599;27;20351;-65
2022/01/10 14:37:06;;;;;;;;;;;;;;;-15.58;59.53;98213.44;6371919;27;20410;-65
2022/01/10 14:40:07;;;;;;;;;;;;;;;-15.71;60.38;98209.34;6371731;27;19930;-65
2022/01/10 14:43:09;;;;;;;;;;;;;;;-15.72;60.04;98212.66;6371306;27;19923;-63
2022/01/10 14:46:12;;;;;;;;;;;;;;;-15.89;60.49;98212.53;6371609;27;20384;-65
2022/01/10 14:49:13;;;;;;;;;;;;;;;-15.97;60.58;98213.72;6370281;28;19934;-64
2022/01/10 14:52:17;;;;;;;;;;;;;;;-16.07;60.63;98201.38;6370844;28;19924;-64
2022/01/10 14:55:20;;;;;;;;;;;;;;;-16.12;60.51;98202.75;6371413;28;19927;-64
2022/01/10 14:58:22;;;;;;;;;;;;;;;-16.11;60.67;98197.78;6370312;28;19962;-64
2022/01/10 15:01:23;;;;;;;;;;;;;;;-15.99;60.82;98195.16;6371301;28;19929;-63
2022/01/10 15:04:29;;;;;;;;;;;;;;;-15.79;60.98;98193.78;6371241;28;20312;-64
2022/01/10 15:07:30;;;;;;;;;;;;;;;-15.74;60.64;98199.09;6371732;27;19930;-64
2022/01/10 15:10:37;;;;;;;;;;;;;;;-15.85;60.83;98194.31;6376742;27;19924;-66
2022/01/10 15:13:44;;;;;;;;;;;;;;;-15.69;60.80;98187.63;6376777;27;19923;-65
2022/01/10 15:16:46;;;;;;;;;;;;;;;-15.71;60.62;98189.19;6376707;27;19923;-64
2022/01/10 15:19:47;;;;;;;;;;;;;;;-15.58;60.31;98184.03;6376346;27;19930;-63
2022/01/10 15:22:50;;;;;;;;;;;;;;;-15.70;60.61;98180.84;6376138;27;20338;-65
2022/01/10 15:25:51;;;;;;;;;;;;;;;-15.75;60.90;98174.66;6375149;27;20316;-63
2022/01/10 15:28:52;;;;;;;;;;;;;;;-15.80;60.79;98176.91;6375203;27;19966;-64
2022/01/10 15:31:54;;;;;;;;;;;;;;;-15.72;61.21;98170.66;6375084;27;20013;-64
2022/01/10 15:34:55;;;;;;;;;;;;;;;-15.67;60.90;98173.41;6375555;27;19923;-64
2022/01/10 15:37:59;;;;;;;;;;;;;;;-15.67;60.65;98174.28;6375761;27;20407;-64
2022/01/10 15:41:00;;;;;;;;;;;;;;;-15.74;60.91;98172.22;6375948;27;20285;-64
2022/01/10 15:44:06;;;;;;;;;;;;;;;-15.72;60.77;98174.84;6375785;27;19928;-64
2022/01/10 15:47:07;;;;;;;;;;;;;;;-15.83;60.95;98165.78;6374649;27;19923;-64
2022/01/10 15:50:13;;;;;;;;;;;;;;;-15.75;60.62;98174.66;6357378;27;20350;-64
2022/01/10 15:53:16;;;;;;;;;;;;;;;-15.66;60.83;98170.09;6375532;27;19923;-63
2022/01/10 15:56:17;;;;;;;;;;;;;;;-15.73;60.81;98161.34;6374964;27;19926;-64